sensor_id;sensor_type;location;lat;lon;timestamp;pressure;altitude;pressure_sealevel;temperature;humidity
15444;BME280;7822;48.146;11.576;2023-12-04T00:00:05;95245.53;;;15.10;67.41
15444;BME280;7822;48.146;11.576;2023-12-04T00:02:33;95238.66;;;15.09;67.59
15444;BME280;7822;48.146;11.576;2023-12-04T00:05:01;95241.25;;;15.09;67.31
15444;BME280;7822;48.146;11.576;2023-12-04T00:07:30;95244.72;;;15.10;67.48
15444;BME280;7822;48.146;11.576;2023-12-04T00:09:57;95237.69;;;15.10;67.38
15444;BME280;7822;48.146;11.576;2023-12-04T00:12:25;95229.84;;;15.10;67.32
15444;BME280;7822;48.146;11.576;2023-12-04T00:14:52;95230.81;;;15.09;67.50
15444;BME280;7822;48.146;11.576;2023-12-04T00:17:19;95230.81;;;15.09;67.05
15444;BME280;7822;48.146;11.576;2023-12-04T00:19:47;95220.38;;;15.09;67.40
15444;BME280;7822;48.146;11.576;2023-12-04T00:22:14;95222.19;;;15.09;67.38
15444;BME280;7822;48.146;11.576;2023-12-04T00:24:43;95221.34;;;15.08;67.65
15444;BME280;7822;48.146;11.576;2023-12-04T00:27:10;95219.56;;;15.09;67.55
15444;BME280;7822;48.146;11.576;2023-12-04T00:29:38;95223.97;;;15.08;67.52
15444;BME280;7822;48.146;11.576;2023-12-04T00:32:06;95210.06;;;15.08;67.40
15444;BME280;7822;48.146;11.576;2023-12-04T00:34:33;95212.53;;;15.09;67.53
15444;BME280;7822;48.146;11.576;2023-12-04T00:37:01;95208.28;;;15.08;67.41
15444;BME280;7822;48.146;11.576;2023-12-04T00:39:29;95205.69;;;15.08;67.52
15444;BME280;7822;48.146;11.576;2023-12-04T00:41:57;95222.97;;;15.09;67.45
15444;BME280;7822;48.146;11.576;2023-12-04T00:44:25;95224.78;;;15.09;67.47
15444;BME280;7822;48.146;11.576;2023-12-04T00:46:52;95220.38;;;15.09;67.27
15444;BME280;7822;48.146;11.576;2023-12-04T00:49:20;95213.50;;;15.08;67.45
15444;BME280;7822;48.146;11.576;2023-12-04T00:51:48;95222.97;;;15.09;67.45
15444;BME280;7822;48.146;11.576;2023-12-04T00:54:15;95208.13;;;15.10;67.44
15444;BME280;7822;48.146;11.576;2023-12-04T00:56:43;95199.47;;;15.09;67.44
15444;BME280;7822;48.146;11.576;2023-12-04T00:59:11;95208.28;;;15.08;67.43
15444;BME280;7822;48.146;11.576;2023-12-04T01:01:39;95195.22;;;15.08;67.49
15444;BME280;7822;48.146;11.576;2023-12-04T01:04:06;95192.59;;;15.08;67.29
15444;BME280;7822;48.146;11.576;2023-12-04T01:06:34;95194.22;;;15.09;67.50
15444;BME280;7822;48.146;11.576;2023-12-04T01:09:02;95196.84;;;15.09;67.46
15444;BME280;7822;48.146;11.576;2023-12-04T01:11:30;95192.44;;;15.10;67.42
15444;BME280;7822;48.146;11.576;2023-12-04T01:13:58;95194.22;;;15.09;67.58
15444;BME280;7822;48.146;11.576;2023-12-04T01:16:26;95191.63;;;15.09;67.44
15444;BME280;7822;48.146;11.576;2023-12-04T01:18:55;95192.59;;;15.08;67.29
15444;BME280;7822;48.146;11.576;2023-12-04T01:21:23;95194.41;;;15.08;67.31
15444;BME280;7822;48.146;11.576;2023-12-04T01:23:50;95195.06;;;15.10;67.45
15444;BME280;7822;48.146;11.576;2023-12-04T01:26:18;95192.44;;;15.10;67.37
15444;BME280;7822;48.146;11.576;2023-12-04T01:28:45;95199.47;;;15.09;67.30
15444;BME280;7822;48.146;11.576;2023-12-04T01:31:13;95197.69;;;15.10;67.42
15444;BME280;7822;48.146;11.576;2023-12-04T01:33:42;95188.22;;;15.09;67.41
15444;BME280;7822;48.146;11.576;2023-12-04T01:36:10;95185.59;;;15.09;67.64
15444;BME280;7822;48.146;11.576;2023-12-04T01:38:37;95178.72;;;15.08;67.36
15444;BME280;7822;48.146;11.576;2023-12-04T01:41:05;95175.16;;;15.09;67.50
15444;BME280;7822;48.146;11.576;2023-12-04T01:43:33;95169.91;;;15.09;67.38
15444;BME280;7822;48.146;11.576;2023-12-04T01:46:01;95166.47;;;15.08;67.51
15444;BME280;7822;48.146;11.576;2023-12-04T01:48:29;95156.84;;;15.09;67.46
15444;BME280;7822;48.146;11.576;2023-12-04T01:50:58;95155.22;;;15.08;67.51
15444;BME280;7822;48.146;11.576;2023-12-04T01:53:27;95153.41;;;15.08;67.49
15444;BME280;7822;48.146;11.576;2023-12-04T01:55:55;95149.97;;;15.08;67.34
15444;BME280;7822;48.146;11.576;2023-12-04T01:58:22;95142.13;;;15.08;67.48
15444;BME280;7822;48.146;11.576;2023-12-04T02:00:50;95138.69;;;15.07;67.38
15444;BME280;7822;48.146;11.576;2023-12-04T02:03:18;95130.88;;;15.07;67.43
15444;BME280;7822;48.146;11.576;2023-12-04T02:05:45;95121.41;;;15.06;67.27
15444;BME280;7822;48.146;11.576;2023-12-04T02:08:14;95115.19;;;15.07;67.38
15444;BME280;7822;48.146;11.576;2023-12-04T02:10:42;95107.34;;;15.07;67.42
15444;BME280;7822;48.146;11.576;2023-12-04T02:13:09;95095.28;;;15.06;67.32
15444;BME280;7822;48.146;11.576;2023-12-04T02:15:37;95100.50;;;15.06;67.51
15444;BME280;7822;48.146;11.576;2023-12-04T02:18:05;95104.75;;;15.07;67.48
15444;BME280;7822;48.146;11.576;2023-12-04T02:20:32;95099.50;;;15.07;67.63
15444;BME280;7822;48.146;11.576;2023-12-04T02:23:00;95096.09;;;15.07;67.32
15444;BME280;7822;48.146;11.576;2023-12-04T02:25:29;95091.84;;;15.06;67.48
15444;BME280;7822;48.146;11.576;2023-12-04T02:28:04;95098.72;;;15.07;67.38
15444;BME280;7822;48.146;11.576;2023-12-04T02:30:33;95091.84;;;15.06;67.33
15444;BME280;7822;48.146;11.576;2023-12-04T02:33:03;95090.06;;;15.06;67.44
15444;BME280;7822;48.146;11.576;2023-12-04T02:35:32;95095.28;;;15.06;67.57
15444;BME280;7822;48.146;11.576;2023-12-04T02:38:00;95095.28;;;15.06;67.37
15444;BME280;7822;48.146;11.576;2023-12-04T02:40:29;95087.44;;;15.06;67.47
15444;BME280;7822;48.146;11.576;2023-12-04T02:42:57;95083.16;;;15.05;67.58
15444;BME280;7822;48.146;11.576;2023-12-04T02:45:25;95084.00;;;15.06;67.36
15444;BME280;7822;48.146;11.576;2023-12-04T02:47:52;95088.25;;;15.07;67.34
15444;BME280;7822;48.146;11.576;2023-12-04T02:50:20;95083.03;;;15.07;67.46
15444;BME280;7822;48.146;11.576;2023-12-04T02:52:47;95087.44;;;15.06;67.50
15444;BME280;7822;48.146;11.576;2023-12-04T02:55:15;95083.84;;;15.07;67.41
15444;BME280;7822;48.146;11.576;2023-12-04T02:57:44;95084.66;;;15.08;67.37
15444;BME280;7822;48.146;11.576;2023-12-04T03:00:12;95080.44;;;15.07;67.57
15444;BME280;7822;48.146;11.576;2023-12-04T03:02:39;95066.53;;;15.06;67.57
15444;BME280;7822;48.146;11.576;2023-12-04T03:05:07;95062.13;;;15.07;67.31
15444;BME280;7822;48.146;11.576;2023-12-04T03:07:34;95053.47;;;15.06;67.51
15444;BME280;7822;48.146;11.576;2023-12-04T03:10:02;95050.88;;;15.06;67.51
15444;BME280;7822;48.146;11.576;2023-12-04T03:12:30;95040.41;;;15.06;67.34
15444;BME280;7822;48.146;11.576;2023-12-04T03:14:59;95036.00;;;15.07;67.38
15444;BME280;7822;48.146;11.576;2023-12-04T03:17:26;95032.56;;;15.06;67.34
15444;BME280;7822;48.146;11.576;2023-12-04T03:19:54;95028.31;;;15.05;67.36
15444;BME280;7822;48.146;11.576;2023-12-04T03:22:21;95032.41;;;15.08;67.35
15444;BME280;7822;48.146;11.576;2023-12-04T03:24:49;95030.78;;;15.07;67.49
15444;BME280;7822;48.146;11.576;2023-12-04T03:27:16;95024.75;;;15.06;67.21
15444;BME280;7822;48.146;11.576;2023-12-04T03:29:44;95026.34;;;15.07;67.42
15444;BME280;7822;48.146;11.576;2023-12-04T03:32:13;95023.75;;;15.07;67.36
15444;BME280;7822;48.146;11.576;2023-12-04T03:34:40;95030.91;;;15.05;67.14
15444;BME280;7822;48.146;11.576;2023-12-04T03:37:08;95027.47;;;15.05;67.58
15444;BME280;7822;48.146;11.576;2023-12-04T03:39:35;95021.31;;;15.06;67.52
15444;BME280;7822;48.146;11.576;2023-12-04T03:42:03;95023.09;;;15.05;67.61
15444;BME280;7822;48.146;11.576;2023-12-04T03:44:31;95019.66;;;15.05;67.48
15444;BME280;7822;48.146;11.576;2023-12-04T03:46:58;95020.47;;;15.05;67.54
15444;BME280;7822;48.146;11.576;2023-12-04T03:49:27;95018.84;;;15.04;67.37
15444;BME280;7822;48.146;11.576;2023-12-04T03:51:55;95017.19;;;15.03;67.47
15444;BME280;7822;48.146;11.576;2023-12-04T03:54:23;95008.41;;;15.04;67.47
15444;BME280;7822;48.146;11.576;2023-12-04T03:56:50;95002.34;;;15.04;67.52
15444;BME280;7822;48.146;11.576;2023-12-04T03:59:18;94999.56;;;15.05;67.62
15444;BME280;7822;48.146;11.576;2023-12-04T04:01:45;94999.75;;;15.04;67.38
15444;BME280;7822;48.146;11.576;2023-12-04T04:04:13;95003.00;;;15.06;67.39
15444;BME280;7822;48.146;11.576;2023-12-04T04:06:42;94998.75;;;15.05;67.36
15444;BME280;7822;48.146;11.576;2023-12-04T04:09:09;94992.72;;;15.04;67.52
15444;BME280;7822;48.146;11.576;2023-12-04T04:11:37;94983.06;;;15.05;67.52
15444;BME280;7822;48.146;11.576;2023-12-04T04:14:04;94982.28;;;15.04;67.42
15444;BME280;7822;48.146;11.576;2023-12-04T04:16:32;94988.47;;;15.03;67.38
15444;BME280;7822;48.146;11.576;2023-12-04T04:18:59;94996.97;;;15.05;67.41
15444;BME280;7822;48.146;11.576;2023-12-04T04:21:27;94989.28;;;15.04;67.49
15444;BME280;7822;48.146;11.576;2023-12-04T04:23:56;94995.34;;;15.04;67.51
15444;BME280;7822;48.146;11.576;2023-12-04T04:26:23;94987.50;;;15.04;67.60
15444;BME280;7822;48.146;11.576;2023-12-04T04:28:51;94981.44;;;15.04;67.35
15444;BME280;7822;48.146;11.576;2023-12-04T04:31:18;94976.22;;;15.04;67.47
15444;BME280;7822;48.146;11.576;2023-12-04T04:33:46;94979.66;;;15.04;67.52
15444;BME280;7822;48.146;11.576;2023-12-04T04:36:13;94979.66;;;15.04;67.64
15444;BME280;7822;48.146;11.576;2023-12-04T04:38:41;94985.69;;;15.05;67.43
15444;BME280;7822;48.146;11.576;2023-12-04T04:41:14;94981.28;;;15.05;67.45
15444;BME280;7822;48.146;11.576;2023-12-04T04:43:41;94982.28;;;15.04;67.53
15444;BME280;7822;48.146;11.576;2023-12-04T04:46:09;94984.72;;;15.06;67.60
15444;BME280;7822;48.146;11.576;2023-12-04T04:48:37;94996.97;;;15.05;67.61
15444;BME280;7822;48.146;11.576;2023-12-04T04:51:04;94984.72;;;15.06;67.64
15444;BME280;7822;48.146;11.576;2023-12-04T04:53:32;94980.47;;;15.05;67.38
15444;BME280;7822;48.146;11.576;2023-12-04T04:55:59;94971.81;;;15.04;67.29
15444;BME280;7822;48.146;11.576;2023-12-04T04:58:28;94958.91;;;15.03;67.42
15444;BME280;7822;48.146;11.576;2023-12-04T05:00:56;94950.94;;;15.04;67.62
15444;BME280;7822;48.146;11.576;2023-12-04T05:03:23;94940.47;;;15.04;67.38
15444;BME280;7822;48.146;11.576;2023-12-04T05:05:51;94937.88;;;15.04;67.39
15444;BME280;7822;48.146;11.576;2023-12-04T05:08:18;94941.28;;;15.05;67.33
15444;BME280;7822;48.146;11.576;2023-12-04T05:10:46;94942.25;;;15.04;67.59
15444;BME280;7822;48.146;11.576;2023-12-04T05:13:13;94944.72;;;15.05;67.35
15444;BME280;7822;48.146;11.576;2023-12-04T05:15:43;94938.66;;;15.05;67.49
15444;BME280;7822;48.146;11.576;2023-12-04T05:18:10;94930.81;;;15.05;67.54
15444;BME280;7822;48.146;11.576;2023-12-04T05:20:38;94948.16;;;15.06;67.52
15444;BME280;7822;48.146;11.576;2023-12-04T05:23:05;94945.69;;;15.04;67.55
15444;BME280;7822;48.146;11.576;2023-12-04T05:25:33;94942.09;;;15.05;67.37
15444;BME280;7822;48.146;11.576;2023-12-04T05:28:10;94942.91;;;15.06;67.29
15444;BME280;7822;48.146;11.576;2023-12-04T05:30:37;94934.13;;;15.07;67.45
15444;BME280;7822;48.146;11.576;2023-12-04T05:33:06;94927.25;;;15.06;67.51
15444;BME280;7822;48.146;11.576;2023-12-04T05:35:34;94930.69;;;15.06;67.57
15444;BME280;7822;48.146;11.576;2023-12-04T05:38:02;94929.03;;;15.05;67.53
15444;BME280;7822;48.146;11.576;2023-12-04T05:40:30;94930.69;;;15.06;67.49
15444;BME280;7822;48.146;11.576;2023-12-04T05:42:57;94940.31;;;15.06;67.40
15444;BME280;7822;48.146;11.576;2023-12-04T05:45:25;94932.47;;;15.06;67.38
15444;BME280;7822;48.146;11.576;2023-12-04T05:47:53;94939.34;;;15.07;67.55
15444;BME280;7822;48.146;11.576;2023-12-04T05:50:22;94930.69;;;15.06;67.55
15444;BME280;7822;48.146;11.576;2023-12-04T05:52:49;94934.13;;;15.07;67.25
15444;BME280;7822;48.146;11.576;2023-12-04T05:55:17;94929.69;;;15.07;67.58
15444;BME280;7822;48.146;11.576;2023-12-04T05:57:45;94932.31;;;15.07;67.65
15444;BME280;7822;48.146;11.576;2023-12-04T06:00:12;94928.06;;;15.06;67.52
15444;BME280;7822;48.146;11.576;2023-12-04T06:02:41;94923.69;;;15.07;67.51
15444;BME280;7822;48.146;11.576;2023-12-04T06:05:09;94918.44;;;15.07;67.55
15444;BME280;7822;48.146;11.576;2023-12-04T06:07:38;94908.78;;;15.07;67.65
15444;BME280;7822;48.146;11.576;2023-12-04T06:10:07;94914.03;;;15.07;67.68
15444;BME280;7822;48.146;11.576;2023-12-04T06:12:35;94908.00;;;15.07;67.74
15444;BME280;7822;48.146;11.576;2023-12-04T06:15:03;94903.56;;;15.07;67.48
15444;BME280;7822;48.146;11.576;2023-12-04T06:17:31;94902.78;;;15.07;67.73
15444;BME280;7822;48.146;11.576;2023-12-04T06:19:58;94903.56;;;15.07;67.51
15444;BME280;7822;48.146;11.576;2023-12-04T06:22:26;94906.19;;;15.07;67.63
15444;BME280;7822;48.146;11.576;2023-12-04T06:24:55;94898.34;;;15.07;67.78
15444;BME280;7822;48.146;11.576;2023-12-04T06:27:23;94901.78;;;15.08;67.90
15444;BME280;7822;48.146;11.576;2023-12-04T06:29:51;94903.44;;;15.09;67.59
15444;BME280;7822;48.146;11.576;2023-12-04T06:32:18;94900.00;;;15.08;67.63
15444;BME280;7822;48.146;11.576;2023-12-04T06:34:46;94893.94;;;15.08;67.75
15444;BME280;7822;48.146;11.576;2023-12-04T06:37:14;94884.31;;;15.08;67.65
15444;BME280;7822;48.146;11.576;2023-12-04T06:39:42;94883.50;;;15.08;67.71
15444;BME280;7822;48.146;11.576;2023-12-04T06:42:14;94879.91;;;15.09;67.65
15444;BME280;7822;48.146;11.576;2023-12-04T06:44:42;94876.47;;;15.08;67.68
15444;BME280;7822;48.146;11.576;2023-12-04T06:47:09;94870.44;;;15.08;67.61
15444;BME280;7822;48.146;11.576;2023-12-04T06:49:39;94876.47;;;15.08;67.46
15444;BME280;7822;48.146;11.576;2023-12-04T06:52:06;94881.72;;;15.08;67.54
15444;BME280;7822;48.146;11.576;2023-12-04T06:54:34;94876.66;;;15.07;67.71
15444;BME280;7822;48.146;11.576;2023-12-04T06:57:02;94877.63;;;15.06;67.57
15444;BME280;7822;48.146;11.576;2023-12-04T06:59:31;94879.25;;;15.07;67.85
15444;BME280;7822;48.146;11.576;2023-12-04T07:01:58;94860.28;;;15.05;67.86
15444;BME280;7822;48.146;11.576;2023-12-04T07:04:26;94871.44;;;15.07;67.68
15444;BME280;7822;48.146;11.576;2023-12-04T07:06:54;94864.56;;;15.06;67.51
15444;BME280;7822;48.146;11.576;2023-12-04T07:09:21;94865.38;;;15.06;67.75
15444;BME280;7822;48.146;11.576;2023-12-04T07:11:49;94868.00;;;15.06;67.64
15444;BME280;7822;48.146;11.576;2023-12-04T07:14:16;94856.72;;;15.06;67.69
15444;BME280;7822;48.146;11.576;2023-12-04T07:16:45;94853.13;;;15.07;67.63
15444;BME280;7822;48.146;11.576;2023-12-04T07:19:13;94849.69;;;15.06;67.81
15444;BME280;7822;48.146;11.576;2023-12-04T07:21:41;94844.47;;;15.06;67.47
15444;BME280;7822;48.146;11.576;2023-12-04T07:24:09;94840.06;;;15.07;67.54
15444;BME280;7822;48.146;11.576;2023-12-04T07:26:36;94838.25;;;15.07;67.47
15444;BME280;7822;48.146;11.576;2023-12-04T07:29:04;94828.81;;;15.06;67.71
15444;BME280;7822;48.146;11.576;2023-12-04T07:31:31;94831.41;;;15.06;67.56
15444;BME280;7822;48.146;11.576;2023-12-04T07:34:00;94822.75;;;15.06;67.68
15444;BME280;7822;48.146;11.576;2023-12-04T07:36:28;94810.53;;;15.06;67.75
15444;BME280;7822;48.146;11.576;2023-12-04T07:38:56;94801.03;;;15.05;67.69
15444;BME280;7822;48.146;11.576;2023-12-04T07:41:23;94805.28;;;15.06;67.66
15444;BME280;7822;48.146;11.576;2023-12-04T07:43:51;94801.84;;;15.06;67.69
15444;BME280;7822;48.146;11.576;2023-12-04T07:46:19;94805.28;;;15.06;67.50
15444;BME280;7822;48.146;11.576;2023-12-04T07:48:46;94802.69;;;15.06;67.58
15444;BME280;7822;48.146;11.576;2023-12-04T07:51:15;94812.31;;;15.06;67.72
15444;BME280;7822;48.146;11.576;2023-12-04T07:53:43;94815.75;;;15.06;67.71
15444;BME280;7822;48.146;11.576;2023-12-04T07:56:11;94826.19;;;15.06;67.80
15444;BME280;7822;48.146;11.576;2023-12-04T07:58:39;94831.25;;;15.08;67.77
15444;BME280;7822;48.146;11.576;2023-12-04T08:01:07;94830.41;;;15.07;67.81
15444;BME280;7822;48.146;11.576;2023-12-04T08:03:34;94828.81;;;15.06;67.75
15444;BME280;7822;48.146;11.576;2023-12-04T08:06:02;94833.03;;;15.07;67.61
15444;BME280;7822;48.146;11.576;2023-12-04T08:08:31;94836.63;;;15.06;67.56
15444;BME280;7822;48.146;11.576;2023-12-04T08:10:59;94836.63;;;15.06;67.67
15444;BME280;7822;48.146;11.576;2023-12-04T08:13:26;94835.66;;;15.07;67.56
15444;BME280;7822;48.146;11.576;2023-12-04T08:15:54;94840.72;;;15.09;67.57
15444;BME280;7822;48.146;11.576;2023-12-04T08:18:21;94833.84;;;15.08;67.46
15444;BME280;7822;48.146;11.576;2023-12-04T08:20:49;94814.75;;;15.07;67.54
15444;BME280;7822;48.146;11.576;2023-12-04T08:23:17;94800.72;;;15.08;67.66
15444;BME280;7822;48.146;11.576;2023-12-04T08:25:46;94796.31;;;15.09;67.68
15444;BME280;7822;48.146;11.576;2023-12-04T08:28:14;94803.34;;;15.08;67.54
15444;BME280;7822;48.146;11.576;2023-12-04T08:30:41;94806.78;;;15.09;67.52
15444;BME280;7822;48.146;11.576;2023-12-04T08:33:09;94809.38;;;15.09;67.67
15444;BME280;7822;48.146;11.576;2023-12-04T08:35:37;94797.28;;;15.08;67.69
15444;BME280;7822;48.146;11.576;2023-12-04T08:38:04;94808.56;;;15.08;67.63
15444;BME280;7822;48.146;11.576;2023-12-04T08:40:32;94810.53;;;15.06;67.79
15444;BME280;7822;48.146;11.576;2023-12-04T08:43:01;94800.91;;;15.07;67.66
15444;BME280;7822;48.146;11.576;2023-12-04T08:45:30;94804.28;;;15.07;67.81
15444;BME280;7822;48.146;11.576;2023-12-04T08:47:57;94802.69;;;15.06;67.81
15444;BME280;7822;48.146;11.576;2023-12-04T08:50:25;94803.50;;;15.07;67.69
15444;BME280;7822;48.146;11.576;2023-12-04T08:52:53;94803.16;;;15.10;67.83
15444;BME280;7822;48.146;11.576;2023-12-04T08:55:21;94814.47;;;15.42;67.58
15444;BME280;7822;48.146;11.576;2023-12-04T08:57:48;94813.06;;;15.56;67.51
15444;BME280;7822;48.146;11.576;2023-12-04T09:00:18;94814.19;;;15.53;67.11
15444;BME280;7822;48.146;11.576;2023-12-04T09:02:45;94820.06;;;15.47;66.23
15444;BME280;7822;48.146;11.576;2023-12-04T09:05:23;94806.81;;;15.41;66.21
15444;BME280;7822;48.146;11.576;2023-12-04T09:07:51;94807.47;;;15.35;65.71
15444;BME280;7822;48.146;11.576;2023-12-04T09:10:22;94798.47;;;15.29;65.45
15444;BME280;7822;48.146;11.576;2023-12-04T09:13:09;94799.94;;;15.24;65.09
15444;BME280;7822;48.146;11.576;2023-12-04T09:15:38;94808.91;;;15.21;65.02
15444;BME280;7822;48.146;11.576;2023-12-04T09:18:05;94806.59;;;15.18;64.67
15444;BME280;7822;48.146;11.576;2023-12-04T09:20:33;94804.16;;;15.17;64.50
15444;BME280;7822;48.146;11.576;2023-12-04T09:23:01;94796.50;;;15.15;64.26
15444;BME280;7822;48.146;11.576;2023-12-04T09:25:34;94799.25;;;15.14;64.24
15444;BME280;7822;48.146;11.576;2023-12-04T09:28:03;94801.88;;;15.14;63.99
15444;BME280;7822;48.146;11.576;2023-12-04T09:30:30;94801.88;;;15.14;63.60
15444;BME280;7822;48.146;11.576;2023-12-04T09:32:59;94794.03;;;15.14;63.75
15444;BME280;7822;48.146;11.576;2023-12-04T09:35:27;94802.84;;;15.13;63.54
15444;BME280;7822;48.146;11.576;2023-12-04T09:37:54;94813.31;;;15.13;62.83
15444;BME280;7822;48.146;11.576;2023-12-04T09:40:23;94827.19;;;15.13;62.50
15444;BME280;7822;48.146;11.576;2023-12-04T09:42:51;94817.53;;;15.14;62.39
15444;BME280;7822;48.146;11.576;2023-12-04T09:45:20;94817.53;;;15.14;61.96
15444;BME280;7822;48.146;11.576;2023-12-04T09:47:48;94815.75;;;15.14;62.03
15444;BME280;7822;48.146;11.576;2023-12-04T09:50:17;94795.84;;;15.13;61.63
15444;BME280;7822;48.146;11.576;2023-12-04T09:52:47;94800.06;;;15.14;61.58
15444;BME280;7822;48.146;11.576;2023-12-04T09:55:15;94787.84;;;15.15;61.04
15444;BME280;7822;48.146;11.576;2023-12-04T09:57:43;94792.22;;;15.14;61.39
15444;BME280;7822;48.146;11.576;2023-12-04T10:00:12;94796.50;;;15.15;60.91
15444;BME280;7822;48.146;11.576;2023-12-04T10:02:40;94785.22;;;15.15;60.48
15444;BME280;7822;48.146;11.576;2023-12-04T10:05:09;94778.22;;;15.15;60.46
15444;BME280;7822;48.146;11.576;2023-12-04T10:07:38;94779.81;;;15.16;60.28
15444;BME280;7822;48.146;11.576;2023-12-04T10:10:05;94786.69;;;15.17;60.40
15444;BME280;7822;48.146;11.576;2023-12-04T10:12:35;94777.88;;;15.18;60.31
15444;BME280;7822;48.146;11.576;2023-12-04T10:15:04;94765.63;;;15.19;60.46
15444;BME280;7822;48.146;11.576;2023-12-04T10:17:33;94758.59;;;15.19;60.58
15444;BME280;7822;48.146;11.576;2023-12-04T10:20:05;94748.16;;;15.19;60.21
15444;BME280;7822;48.146;11.576;2023-12-04T10:22:52;94746.38;;;15.20;60.12
15444;BME280;7822;48.146;11.576;2023-12-04T10:25:20;94739.31;;;15.20;60.11
15444;BME280;7822;48.146;11.576;2023-12-04T10:27:48;94726.13;;;15.22;59.98
15444;BME280;7822;48.146;11.576;2023-12-04T10:30:22;94730.53;;;15.21;60.07
15444;BME280;7822;48.146;11.576;2023-12-04T10:32:53;94736.72;;;15.20;60.22
15444;BME280;7822;48.146;11.576;2023-12-04T10:35:21;94737.53;;;15.21;60.25
15444;BME280;7822;48.146;11.576;2023-12-04T10:37:52;94719.41;;;15.19;60.05
15444;BME280;7822;48.146;11.576;2023-12-04T10:40:24;94736.06;;;15.18;60.43
15444;BME280;7822;48.146;11.576;2023-12-04T10:42:57;94727.25;;;15.19;60.17
15444;BME280;7822;48.146;11.576;2023-12-04T10:45:36;94718.75;;;15.17;59.96
15444;BME280;7822;48.146;11.576;2023-12-04T10:48:04;94724.13;;;15.16;59.77
15444;BME280;7822;48.146;11.576;2023-12-04T10:53:02;94711.41;;;15.13;59.37
15444;BME280;7822;48.146;11.576;2023-12-04T10:55:30;94715.00;;;15.12;59.29
15444;BME280;7822;48.146;11.576;2023-12-04T10:57:58;94709.75;;;15.12;59.19
15444;BME280;7822;48.146;11.576;2023-12-04T11:00:26;94706.50;;;15.10;58.81
15444;BME280;7822;48.146;11.576;2023-12-04T11:02:55;94701.28;;;15.10;59.13
15444;BME280;7822;48.146;11.576;2023-12-04T11:05:27;94690.19;;;15.08;58.57
15444;BME280;7822;48.146;11.576;2023-12-04T11:07:56;94699.00;;;15.07;58.97
15444;BME280;7822;48.146;11.576;2023-12-04T11:10:46;94695.41;;;15.08;59.35
15444;BME280;7822;48.146;11.576;2023-12-04T11:13:17;94691.00;;;15.08;59.64
15444;BME280;7822;48.146;11.576;2023-12-04T11:15:45;94682.16;;;15.09;59.44
15444;BME280;7822;48.146;11.576;2023-12-04T11:18:16;94664.69;;;15.10;59.46
15444;BME280;7822;48.146;11.576;2023-12-04T11:20:46;94655.06;;;15.10;59.44
15444;BME280;7822;48.146;11.576;2023-12-04T11:23:15;94651.97;;;15.15;59.39
15444;BME280;7822;48.146;11.576;2023-12-04T11:25:43;94647.72;;;15.30;61.16
15444;BME280;7822;48.146;11.576;2023-12-04T11:28:15;94645.91;;;15.38;60.53
15444;BME280;7822;48.146;11.576;2023-12-04T11:30:43;94641.16;;;15.34;59.25
15444;BME280;7822;48.146;11.576;2023-12-04T11:33:11;94638.22;;;15.29;59.44
15444;BME280;7822;48.146;11.576;2023-12-04T11:35:39;94630.72;;;15.26;59.55
15444;BME280;7822;48.146;11.576;2023-12-04T11:38:07;94630.41;;;15.21;59.65
15444;BME280;7822;48.146;11.576;2023-12-04T11:40:35;94623.72;;;15.18;59.82
15444;BME280;7822;48.146;11.576;2023-12-04T11:43:05;94614.25;;;15.17;60.15
15444;BME280;7822;48.146;11.576;2023-12-04T11:45:49;94614.25;;;15.17;60.25
15444;BME280;7822;48.146;11.576;2023-12-04T11:48:17;94617.00;;;15.16;60.01
15444;BME280;7822;48.146;11.576;2023-12-04T11:50:50;94619.63;;;15.16;60.36
15444;BME280;7822;48.146;11.576;2023-12-04T11:53:18;94626.50;;;15.17;60.68
15444;BME280;7822;48.146;11.576;2023-12-04T11:55:45;94625.66;;;15.16;60.63
15444;BME280;7822;48.146;11.576;2023-12-04T11:58:16;94638.75;;;15.16;60.99
15444;BME280;7822;48.146;11.576;2023-12-04T12:00:44;94643.00;;;15.17;61.14
15444;BME280;7822;48.146;11.576;2023-12-04T12:03:14;94647.22;;;15.18;61.63
15444;BME280;7822;48.146;11.576;2023-12-04T12:05:49;94648.88;;;15.19;61.85
15444;BME280;7822;48.146;11.576;2023-12-04T12:08:19;94647.09;;;15.20;61.60
15444;BME280;7822;48.146;11.576;2023-12-04T12:10:47;94620.78;;;15.21;61.72
15444;BME280;7822;48.146;11.576;2023-12-04T12:13:14;94633.66;;;15.23;62.01
15444;BME280;7822;48.146;11.576;2023-12-04T12:15:42;94633.53;;;15.24;61.84
15444;BME280;7822;48.146;11.576;2023-12-04T12:18:10;94620.28;;;15.26;61.70
15444;BME280;7822;48.146;11.576;2023-12-04T12:20:39;94627.13;;;15.27;61.69
15444;BME280;7822;48.146;11.576;2023-12-04T12:23:06;94628.78;;;15.28;61.99
15444;BME280;7822;48.146;11.576;2023-12-04T12:25:34;94633.00;;;15.29;61.34
15444;BME280;7822;48.146;11.576;2023-12-04T12:28:02;94630.06;;;15.32;61.75
15444;BME280;7822;48.146;11.576;2023-12-04T12:30:30;94621.25;;;15.33;61.92
15444;BME280;7822;48.146;11.576;2023-12-04T12:32:57;94613.06;;;15.36;61.97
15444;BME280;7822;48.146;11.576;2023-12-04T12:35:25;94607.69;;;15.37;62.33
15444;BME280;7822;48.146;11.576;2023-12-04T12:37:55;94611.91;;;15.38;62.00
15444;BME280;7822;48.146;11.576;2023-12-04T12:40:23;94611.75;;;15.40;61.58
15444;BME280;7822;48.146;11.576;2023-12-04T12:42:50;94629.72;;;15.43;61.62
15444;BME280;7822;48.146;11.576;2023-12-04T12:45:19;94619.13;;;15.44;61.69
15444;BME280;7822;48.146;11.576;2023-12-04T12:47:47;94619.78;;;15.46;61.55
15444;BME280;7822;48.146;11.576;2023-12-04T12:50:15;94624.84;;;15.48;61.43
15444;BME280;7822;48.146;11.576;2023-12-04T12:52:42;94610.63;;;15.50;61.64
15444;BME280;7822;48.146;11.576;2023-12-04T12:55:13;94618.28;;;15.52;61.12
15444;BME280;7822;48.146;11.576;2023-12-04T12:57:49;94622.38;;;15.54;59.63
15444;BME280;7822;48.146;11.576;2023-12-04T13:00:17;94595.22;;;15.55;60.16
15444;BME280;7822;48.146;11.576;2023-12-04T13:02:45;94608.94;;;15.57;60.40
15444;BME280;7822;48.146;11.576;2023-12-04T13:05:13;94603.41;;;15.61;60.63
15444;BME280;7822;48.146;11.576;2023-12-04T13:07:43;94588.34;;;15.63;61.03